sensor_id;sensor_type;location;lat;lon;timestamp;P1;durP1;ratioP1;P2;durP2;ratioP2
9108;SDS011;4590;51.462;6.692;2024-02-21T05:30:25;11.25;;;4.47;;
9108;SDS011;4590;51.462;6.692;2024-02-21T05:35:17;8.73;;;3.97;;
9108;SDS011;4590;51.462;6.692;2024-02-21T05:37:42;10.87;;;4.80;;
9108;SDS011;4590;51.462;6.692;2024-02-21T05:40:09;8.73;;;4.70;;
9108;SDS011;4590;51.462;6.692;2024-02-21T05:42:37;9.60;;;4.65;;
9108;SDS011;4590;51.462;6.692;2024-02-21T05:45:03;11.37;;;4.80;;
9108;SDS011;4590;51.462;6.692;2024-02-21T05:47:28;8.02;;;4.85;;
9108;SDS011;4590;51.462;6.692;2024-02-21T05:49:54;14.20;;;5.60;;
9108;SDS011;4590;51.462;6.692;2024-02-21T05:52:19;11.00;;;5.20;;
9108;SDS011;4590;51.462;6.692;2024-02-21T05:54:44;9.53;;;5.43;;
9108;SDS011;4590;51.462;6.692;2024-02-21T05:57:10;10.73;;;5.37;;
9108;SDS011;4590;51.462;6.692;2024-02-21T05:59:37;9.43;;;4.78;;
9108;SDS011;4590;51.462;6.692;2024-02-21T06:02:05;8.35;;;4.82;;
9108;SDS011;4590;51.462;6.692;2024-02-21T06:04:31;11.00;;;5.25;;
9108;SDS011;4590;51.462;6.692;2024-02-21T06:06:56;11.30;;;5.33;;
9108;SDS011;4590;51.462;6.692;2024-02-21T06:09:21;11.63;;;4.77;;
9108;SDS011;4590;51.462;6.692;2024-02-21T06:11:47;13.23;;;5.67;;
9108;SDS011;4590;51.462;6.692;2024-02-21T06:14:14;10.93;;;5.07;;
9108;SDS011;4590;51.462;6.692;2024-02-21T06:16:39;13.03;;;5.50;;
9108;SDS011;4590;51.462;6.692;2024-02-21T06:19:04;9.57;;;4.87;;
9108;SDS011;4590;51.462;6.692;2024-02-21T06:21:29;14.20;;;5.20;;
9108;SDS011;4590;51.462;6.692;2024-02-21T06:23:55;11.70;;;4.97;;
9108;SDS011;4590;51.462;6.692;2024-02-21T06:26:20;11.73;;;4.67;;
9108;SDS011;4590;51.462;6.692;2024-02-21T06:28:45;9.97;;;4.97;;
9108;SDS011;4590;51.462;6.692;2024-02-21T06:31:11;10.35;;;5.05;;
9108;SDS011;4590;51.462;6.692;2024-02-21T06:33:37;11.27;;;4.73;;
9108;SDS011;4590;51.462;6.692;2024-02-21T06:36:02;20.50;;;4.53;;
9108;SDS011;4590;51.462;6.692;2024-02-21T06:38:30;12.90;;;5.80;;
9108;SDS011;4590;51.462;6.692;2024-02-21T06:40:56;16.42;;;5.40;;
9108;SDS011;4590;51.462;6.692;2024-02-21T06:43:25;8.23;;;4.95;;
9108;SDS011;4590;51.462;6.692;2024-02-21T06:45:50;9.70;;;4.87;;
9108;SDS011;4590;51.462;6.692;2024-02-21T06:48:16;8.80;;;4.60;;
9108;SDS011;4590;51.462;6.692;2024-02-21T06:50:42;11.77;;;4.55;;
9108;SDS011;4590;51.462;6.692;2024-02-21T06:53:08;10.90;;;4.57;;
9108;SDS011;4590;51.462;6.692;2024-02-21T06:55:36;8.50;;;4.63;;
9108;SDS011;4590;51.462;6.692;2024-02-21T06:58:01;12.80;;;5.27;;
9108;SDS011;4590;51.462;6.692;2024-02-21T07:00:27;8.13;;;4.07;;
9108;SDS011;4590;51.462;6.692;2024-02-21T07:02:53;10.45;;;4.40;;
9108;SDS011;4590;51.462;6.692;2024-02-21T07:05:19;9.10;;;4.77;;
9108;SDS011;4590;51.462;6.692;2024-02-21T07:07:44;11.63;;;4.37;;
9108;SDS011;4590;51.462;6.692;2024-02-21T07:10:09;9.67;;;4.60;;
9108;SDS011;4590;51.462;6.692;2024-02-21T07:12:35;13.98;;;4.63;;
9108;SDS011;4590;51.462;6.692;2024-02-21T07:15:03;10.18;;;5.03;;
9108;SDS011;4590;51.462;6.692;2024-02-21T07:17:29;10.98;;;4.70;;
9108;SDS011;4590;51.462;6.692;2024-02-21T07:19:55;11.63;;;4.27;;
9108;SDS011;4590;51.462;6.692;2024-02-21T07:22:21;7.90;;;4.65;;
9108;SDS011;4590;51.462;6.692;2024-02-21T07:24:47;9.33;;;5.13;;
9108;SDS011;4590;51.462;6.692;2024-02-21T07:27:13;10.27;;;4.40;;
9108;SDS011;4590;51.462;6.692;2024-02-21T07:29:40;9.75;;;4.43;;
9108;SDS011;4590;51.462;6.692;2024-02-21T07:32:06;9.95;;;4.50;;
9108;SDS011;4590;51.462;6.692;2024-02-21T07:34:31;8.83;;;4.67;;
9108;SDS011;4590;51.462;6.692;2024-02-21T07:36:57;10.23;;;4.20;;
9108;SDS011;4590;51.462;6.692;2024-02-21T07:39:22;9.60;;;4.63;;
9108;SDS011;4590;51.462;6.692;2024-02-21T07:41:48;8.90;;;4.57;;
9108;SDS011;4590;51.462;6.692;2024-02-21T07:44:14;11.05;;;4.25;;
9108;SDS011;4590;51.462;6.692;2024-02-21T07:46:42;12.95;;;4.10;;
9108;SDS011;4590;51.462;6.692;2024-02-21T07:49:07;11.93;;;4.60;;
9108;SDS011;4590;51.462;6.692;2024-02-21T07:51:33;9.57;;;4.30;;
9108;SDS011;4590;51.462;6.692;2024-02-21T07:54:00;6.43;;;3.65;;
9108;SDS011;4590;51.462;6.692;2024-02-21T07:56:29;9.02;;;4.13;;
9108;SDS011;4590;51.462;6.692;2024-02-21T07:58:56;9.35;;;4.70;;
9108;SDS011;4590;51.462;6.692;2024-02-21T08:01:21;12.10;;;4.23;;
9108;SDS011;4590;51.462;6.692;2024-02-21T08:03:46;9.37;;;4.20;;
9108;SDS011;4590;51.462;6.692;2024-02-21T08:06:12;8.10;;;4.30;;
9108;SDS011;4590;51.462;6.692;2024-02-21T08:08:38;8.20;;;4.25;;
9108;SDS011;4590;51.462;6.692;2024-02-21T08:11:04;13.25;;;5.03;;
9108;SDS011;4590;51.462;6.692;2024-02-21T08:13:29;11.77;;;4.13;;
9108;SDS011;4590;51.462;6.692;2024-02-21T08:15:55;9.43;;;3.50;;
9108;SDS011;4590;51.462;6.692;2024-02-21T08:18:20;13.10;;;3.80;;
9108;SDS011;4590;51.462;6.692;2024-02-21T08:20:45;8.27;;;3.83;;
9108;SDS011;4590;51.462;6.692;2024-02-21T08:23:10;8.37;;;3.87;;
9108;SDS011;4590;51.462;6.692;2024-02-21T08:25:36;7.27;;;3.83;;
9108;SDS011;4590;51.462;6.692;2024-02-21T08:28:01;9.07;;;3.40;;
9108;SDS011;4590;51.462;6.692;2024-02-21T08:30:28;9.63;;;3.70;;
9108;SDS011;4590;51.462;6.692;2024-02-21T08:32:53;8.13;;;3.83;;
9108;SDS011;4590;51.462;6.692;2024-02-21T08:35:19;8.30;;;3.90;;
9108;SDS011;4590;51.462;6.692;2024-02-21T08:37:46;11.15;;;4.30;;
9108;SDS011;4590;51.462;6.692;2024-02-21T08:40:13;9.57;;;4.32;;
9108;SDS011;4590;51.462;6.692;2024-02-21T08:42:38;12.10;;;4.20;;
9108;SDS011;4590;51.462;6.692;2024-02-21T08:45:04;12.95;;;4.18;;
9108;SDS011;4590;51.462;6.692;2024-02-21T08:47:29;8.85;;;3.60;;
9108;SDS011;4590;51.462;6.692;2024-02-21T08:49:55;12.47;;;5.10;;
9108;SDS011;4590;51.462;6.692;2024-02-21T08:52:20;9.90;;;4.00;;
9108;SDS011;4590;51.462;6.692;2024-02-21T08:54:46;11.80;;;3.93;;
9108;SDS011;4590;51.462;6.692;2024-02-21T08:57:12;10.13;;;4.30;;
9108;SDS011;4590;51.462;6.692;2024-02-21T08:59:38;11.20;;;4.45;;
9108;SDS011;4590;51.462;6.692;2024-02-21T09:02:04;11.30;;;3.95;;
9108;SDS011;4590;51.462;6.692;2024-02-21T09:04:30;9.17;;;3.60;;
9108;SDS011;4590;51.462;6.692;2024-02-21T09:06:55;9.80;;;3.70;;
9108;SDS011;4590;51.462;6.692;2024-02-21T09:09:22;9.73;;;3.60;;
9108;SDS011;4590;51.462;6.692;2024-02-21T09:11:47;7.83;;;3.47;;
9108;SDS011;4590;51.462;6.692;2024-02-21T09:14:12;7.70;;;2.87;;
9108;SDS011;4590;51.462;6.692;2024-02-21T09:16:38;8.70;;;3.40;;
9108;SDS011;4590;51.462;6.692;2024-02-21T09:19:03;13.07;;;4.33;;
9108;SDS011;4590;51.462;6.692;2024-02-21T09:21:29;8.90;;;3.65;;
9108;SDS011;4590;51.462;6.692;2024-02-21T09:23:54;7.57;;;2.93;;
9108;SDS011;4590;51.462;6.692;2024-02-21T09:26:19;7.50;;;3.43;;
9108;SDS011;4590;51.462;6.692;2024-02-21T09:28:45;8.53;;;3.00;;
9108;SDS011;4590;51.462;6.692;2024-02-21T09:31:10;6.90;;;3.10;;
9108;SDS011;4590;51.462;6.692;2024-02-21T09:33:35;9.10;;;3.33;;
9108;SDS011;4590;51.462;6.692;2024-02-21T09:36:02;11.30;;;3.60;;
9108;SDS011;4590;51.462;6.692;2024-02-21T09:38:27;6.83;;;2.87;;
9108;SDS011;4590;51.462;6.692;2024-02-21T09:41:38;7.43;;;3.50;;
9108;SDS011;4590;51.462;6.692;2024-02-21T09:43:43;6.63;;;2.85;;
9108;SDS011;4590;51.462;6.692;2024-02-21T09:46:13;5.65;;;2.92;;
9108;SDS011;4590;51.462;6.692;2024-02-21T09:48:47;8.18;;;3.08;;
9108;SDS011;4590;51.462;6.692;2024-02-21T09:51:16;7.82;;;2.90;;
9108;SDS011;4590;51.462;6.692;2024-02-21T09:53:41;8.47;;;3.17;;
9108;SDS011;4590;51.462;6.692;2024-02-21T09:56:08;6.35;;;2.85;;
9108;SDS011;4590;51.462;6.692;2024-02-21T09:58:33;6.93;;;3.15;;
9108;SDS011;4590;51.462;6.692;2024-02-21T10:00:59;7.00;;;2.80;;
9108;SDS011;4590;51.462;6.692;2024-02-21T10:03:25;3.83;;;2.63;;
9108;SDS011;4590;51.462;6.692;2024-02-21T10:05:50;6.60;;;2.90;;
9108;SDS011;4590;51.462;6.692;2024-02-21T10:08:16;6.47;;;2.63;;
9108;SDS011;4590;51.462;6.692;2024-02-21T10:10:43;7.07;;;2.75;;
9108;SDS011;4590;51.462;6.692;2024-02-21T10:13:09;4.82;;;2.80;;
9108;SDS011;4590;51.462;6.692;2024-02-21T10:18:03;7.47;;;3.42;;
9108;SDS011;4590;51.462;6.692;2024-02-21T10:20:32;9.07;;;2.63;;
9108;SDS011;4590;51.462;6.692;2024-02-21T10:23:02;6.80;;;2.65;;
9108;SDS011;4590;51.462;6.692;2024-02-21T10:25:48;7.50;;;2.60;;
9108;SDS011;4590;51.462;6.692;2024-02-21T10:28:16;6.25;;;2.47;;
9108;SDS011;4590;51.462;6.692;2024-02-21T10:30:50;5.70;;;2.50;;
9108;SDS011;4590;51.462;6.692;2024-02-21T10:33:17;5.88;;;2.45;;
9108;SDS011;4590;51.462;6.692;2024-02-21T10:35:45;6.07;;;2.40;;
9108;SDS011;4590;51.462;6.692;2024-02-21T10:38:11;5.88;;;2.33;;
9108;SDS011;4590;51.462;6.692;2024-02-21T10:40:36;6.67;;;2.70;;
9108;SDS011;4590;51.462;6.692;2024-02-21T10:43:02;5.27;;;2.80;;
9108;SDS011;4590;51.462;6.692;2024-02-21T10:45:35;7.03;;;2.50;;
9108;SDS011;4590;51.462;6.692;2024-02-21T10:48:06;7.88;;;3.25;;
9108;SDS011;4590;51.462;6.692;2024-02-21T10:50:56;4.95;;;2.35;;
9108;SDS011;4590;51.462;6.692;2024-02-21T10:56:26;6.22;;;2.30;;
9108;SDS011;4590;51.462;6.692;2024-02-21T10:58:54;6.60;;;2.28;;
9108;SDS011;4590;51.462;6.692;2024-02-21T11:01:22;6.43;;;2.20;;
9108;SDS011;4590;51.462;6.692;2024-02-21T11:03:49;5.93;;;2.10;;
9108;SDS011;4590;51.462;6.692;2024-02-21T11:06:18;5.70;;;2.47;;
9108;SDS011;4590;51.462;6.692;2024-02-21T11:08:46;7.75;;;2.35;;
9108;SDS011;4590;51.462;6.692;2024-02-21T11:11:14;7.07;;;2.50;;
9108;SDS011;4590;51.462;6.692;2024-02-21T11:13:42;6.07;;;1.95;;
9108;SDS011;4590;51.462;6.692;2024-02-21T11:16:11;7.05;;;2.65;;
9108;SDS011;4590;51.462;6.692;2024-02-21T11:18:46;8.45;;;2.88;;
9108;SDS011;4590;51.462;6.692;2024-02-21T11:21:12;10.20;;;3.07;;
9108;SDS011;4590;51.462;6.692;2024-02-21T11:23:37;7.87;;;2.30;;
9108;SDS011;4590;51.462;6.692;2024-02-21T11:28:35;5.40;;;1.92;;
9108;SDS011;4590;51.462;6.692;2024-02-21T11:31:06;5.85;;;2.53;;
9108;SDS011;4590;51.462;6.692;2024-02-21T11:33:39;5.95;;;2.58;;
9108;SDS011;4590;51.462;6.692;2024-02-21T11:36:05;9.27;;;3.72;;
9108;SDS011;4590;51.462;6.692;2024-02-21T11:38:30;6.87;;;2.50;;
9108;SDS011;4590;51.462;6.692;2024-02-21T11:40:56;4.70;;;2.70;;
9108;SDS011;4590;51.462;6.692;2024-02-21T11:43:22;5.83;;;2.63;;
9108;SDS011;4590;51.462;6.692;2024-02-21T11:45:49;7.05;;;3.10;;
9108;SDS011;4590;51.462;6.692;2024-02-21T11:48:14;8.93;;;3.47;;
9108;SDS011;4590;51.462;6.692;2024-02-21T11:50:39;5.80;;;2.87;;
9108;SDS011;4590;51.462;6.692;2024-02-21T11:55:31;6.53;;;2.60;;
9108;SDS011;4590;51.462;6.692;2024-02-21T11:57:56;6.57;;;2.60;;
9108;SDS011;4590;51.462;6.692;2024-02-21T12:00:22;6.53;;;2.90;;
9108;SDS011;4590;51.462;6.692;2024-02-21T12:02:49;8.50;;;2.60;;
9108;SDS011;4590;51.462;6.692;2024-02-21T12:05:15;7.65;;;2.60;;
9108;SDS011;4590;51.462;6.692;2024-02-21T12:07:41;6.43;;;2.45;;
9108;SDS011;4590;51.462;6.692;2024-02-21T12:10:08;5.90;;;3.00;;
9108;SDS011;4590;51.462;6.692;2024-02-21T12:12:37;6.65;;;2.40;;
9108;SDS011;4590;51.462;6.692;2024-02-21T12:15:06;6.50;;;2.42;;
9108;SDS011;4590;51.462;6.692;2024-02-21T12:17:33;7.05;;;2.55;;
9108;SDS011;4590;51.462;6.692;2024-02-21T12:20:00;7.85;;;2.75;;
9108;SDS011;4590;51.462;6.692;2024-02-21T12:22:25;7.30;;;2.60;;
9108;SDS011;4590;51.462;6.692;2024-02-21T12:24:51;7.85;;;3.17;;
9108;SDS011;4590;51.462;6.692;2024-02-21T12:27:16;5.13;;;2.77;;
9108;SDS011;4590;51.462;6.692;2024-02-21T12:29:42;9.60;;;3.10;;
9108;SDS011;4590;51.462;6.692;2024-02-21T12:32:07;5.80;;;2.90;;
9108;SDS011;4590;51.462;6.692;2024-02-21T12:34:32;8.63;;;2.93;;
9108;SDS011;4590;51.462;6.692;2024-02-21T12:36:58;7.90;;;2.73;;
9108;SDS011;4590;51.462;6.692;2024-02-21T12:39:23;6.13;;;2.85;;
9108;SDS011;4590;51.462;6.692;2024-02-21T12:41:49;7.40;;;2.80;;
9108;SDS011;4590;51.462;6.692;2024-02-21T12:44:16;8.35;;;3.15;;
9108;SDS011;4590;51.462;6.692;2024-02-21T12:46:43;7.90;;;3.22;;
9108;SDS011;4590;51.462;6.692;2024-02-21T12:49:08;8.80;;;2.83;;
9108;SDS011;4590;51.462;6.692;2024-02-21T12:51:34;7.60;;;2.87;;
9108;SDS011;4590;51.462;6.692;2024-02-21T12:54:00;9.65;;;2.95;;
9108;SDS011;4590;51.462;6.692;2024-02-21T12:56:26;6.07;;;2.30;;
9108;SDS011;4590;51.462;6.692;2024-02-21T12:58:52;5.40;;;2.38;;
9108;SDS011;4590;51.462;6.692;2024-02-21T13:01:18;7.70;;;2.60;;
9108;SDS011;4590;51.462;6.692;2024-02-21T13:03:43;7.50;;;2.83;;
9108;SDS011;4590;51.462;6.692;2024-02-21T13:06:08;5.33;;;2.10;;
9108;SDS011;4590;51.462;6.692;2024-02-21T13:08:37;4.93;;;2.38;;
9108;SDS011;4590;51.462;6.692;2024-02-21T13:11:03;3.97;;;1.75;;
9108;SDS011;4590;51.462;6.692;2024-02-21T13:13:29;6.05;;;2.45;;
9108;SDS011;4590;51.462;6.692;2024-02-21T13:15:54;6.28;;;2.20;;
9108;SDS011;4590;51.462;6.692;2024-02-21T13:18:20;5.40;;;2.20;;
9108;SDS011;4590;51.462;6.692;2024-02-21T13:20:45;4.80;;;2.17;;
9108;SDS011;4590;51.462;6.692;2024-02-21T13:23:10;6.67;;;2.33;;
9108;SDS011;4590;51.462;6.692;2024-02-21T13:25:35;5.37;;;2.10;;
9108;SDS011;4590;51.462;6.692;2024-02-21T13:28:01;8.50;;;2.27;;
9108;SDS011;4590;51.462;6.692;2024-02-21T13:30:28;6.38;;;2.35;;
9108;SDS011;4590;51.462;6.692;2024-02-21T13:32:53;5.80;;;2.20;;
9108;SDS011;4590;51.462;6.692;2024-02-21T13:35:19;6.40;;;2.10;;
9108;SDS011;4590;51.462;6.692;2024-02-21T13:37:45;5.85;;;2.30;;
9108;SDS011;4590;51.462;6.692;2024-02-21T13:40:10;4.97;;;1.70;;
9108;SDS011;4590;51.462;6.692;2024-02-21T13:42:36;5.73;;;2.10;;
9108;SDS011;4590;51.462;6.692;2024-02-21T13:47:28;5.15;;;2.72;;
9108;SDS011;4590;51.462;6.692;2024-02-21T13:49:54;6.55;;;2.85;;
9108;SDS011;4590;51.462;6.692;2024-02-21T13:52:21;4.18;;;2.00;;
9108;SDS011;4590;51.462;6.692;2024-02-21T13:54:47;4.60;;;2.13;;
9108;SDS011;4590;51.462;6.692;2024-02-21T13:57:12;8.20;;;1.98;;
9108;SDS011;4590;51.462;6.692;2024-02-21T14:02:04;5.95;;;2.10;;
9108;SDS011;4590;51.462;6.692;2024-02-21T14:04:32;6.20;;;2.33;;
9108;SDS011;4590;51.462;6.692;2024-02-21T14:06:57;7.07;;;2.73;;
9108;SDS011;4590;51.462;6.692;2024-02-21T14:09:22;5.30;;;2.13;;
9108;SDS011;4590;51.462;6.692;2024-02-21T14:11:48;10.80;;;2.50;;
9108;SDS011;4590;51.462;6.692;2024-02-21T14:14:13;5.13;;;2.40;;
9108;SDS011;4590;51.462;6.692;2024-02-21T14:16:40;5.60;;;2.30;;
9108;SDS011;4590;51.462;6.692;2024-02-21T14:19:06;6.75;;;2.38;;
9108;SDS011;4590;51.462;6.692;2024-02-21T14:21:33;5.28;;;2.10;;
9108;SDS011;4590;51.462;6.692;2024-02-21T14:23:59;5.68;;;2.42;;
9108;SDS011;4590;51.462;6.692;2024-02-21T14:26:27;8.15;;;2.38;;
9108;SDS011;4590;51.462;6.692;2024-02-21T14:28:53;5.37;;;2.30;;
9108;SDS011;4590;51.462;6.692;2024-02-21T14:31:18;9.20;;;2.37;;
9108;SDS011;4590;51.462;6.692;2024-02-21T14:33:43;7.63;;;2.53;;
9108;SDS011;4590;51.462;6.692;2024-02-21T14:36:11;5.78;;;2.50;;
9108;SDS011;4590;51.462;6.692;2024-02-21T14:38:36;4.30;;;2.03;;
9108;SDS011;4590;51.462;6.692;2024-02-21T14:41:02;6.00;;;2.27;;
9108;SDS011;4590;51.462;6.692;2024-02-21T14:43:27;7.07;;;2.58;;
9108;SDS011;4590;51.462;6.692;2024-02-21T14:45:56;6.43;;;2.80;;
9108;SDS011;4590;51.462;6.692;2024-02-21T14:48:21;5.07;;;2.17;;
9108;SDS011;4590;51.462;6.692;2024-02-21T14:50:47;4.87;;;2.33;;
9108;SDS011;4590;51.462;6.692;2024-02-21T14:53:12;5.03;;;2.67;;
9108;SDS011;4590;51.462;6.692;2024-02-21T14:55:37;6.00;;;2.60;;
9108;SDS011;4590;51.462;6.692;2024-02-21T14:58:09;5.95;;;2.72;;
9108;SDS011;4590;51.462;6.692;2024-02-21T15:00:34;7.27;;;2.50;;
9108;SDS011;4590;51.462;6.692;2024-02-21T15:02:59;7.87;;;2.73;;
9108;SDS011;4590;51.462;6.692;2024-02-21T15:05:25;6.10;;;2.60;;
9108;SDS011;4590;51.462;6.692;2024-02-21T15:07:51;4.22;;;2.38;;
9108;SDS011;4590;51.462;6.692;2024-02-21T15:10:17;8.10;;;2.83;;
9108;SDS011;4590;51.462;6.692;2024-02-21T15:12:44;5.40;;;3.22;;
9108;SDS011;4590;51.462;6.692;2024-02-21T15:15:10;7.15;;;2.97;;
9108;SDS011;4590;51.462;6.692;2024-02-21T15:17:35;7.13;;;3.83;;
9108;SDS011;4590;51.462;6.692;2024-02-21T15:20:01;5.27;;;2.73;;
9108;SDS011;4590;51.462;6.692;2024-02-21T15:22:26;6.53;;;2.50;;
9108;SDS011;4590;51.462;6.692;2024-02-21T15:24:52;4.90;;;2.70;;
9108;SDS011;4590;51.462;6.692;2024-02-21T15:27:18;6.32;;;2.40;;
9108;SDS011;4590;51.462;6.692;2024-02-21T15:29:44;8.03;;;2.87;;
9108;SDS011;4590;51.462;6.692;2024-02-21T15:32:09;3.58;;;1.83;;
9108;SDS011;4590;51.462;6.692;2024-02-21T15:34:36;5.78;;;2.08;;
9108;SDS011;4590;51.462;6.692;2024-02-21T15:37:01;5.40;;;2.88;;
9108;SDS011;4590;51.462;6.692;2024-02-21T15:39:29;9.55;;;3.40;;
9108;SDS011;4590;51.462;6.692;2024-02-21T15:41:54;5.77;;;2.20;;
9108;SDS011;4590;51.462;6.692;2024-02-21T15:44:21;4.85;;;2.35;;
9108;SDS011;4590;51.462;6.692;2024-02-21T15:46:47;4.87;;;2.60;;
9108;SDS011;4590;51.462;6.692;2024-02-21T15:49:15;3.63;;;2.22;;
9108;SDS011;4590;51.462;6.692;2024-02-21T15:51:41;4.73;;;2.63;;
9108;SDS011;4590;51.462;6.692;2024-02-21T15:54:06;4.43;;;2.40;;
9108;SDS011;4590;51.462;6.692;2024-02-21T15:56:34;8.32;;;3.03;;
9108;SDS011;4590;51.462;6.692;2024-02-21T15:59:00;14.27;;;3.38;;
9108;SDS011;4590;51.462;6.692;2024-02-21T16:01:25;4.95;;;2.70;;
9108;SDS011;4590;51.462;6.692;2024-02-21T16:03:51;6.33;;;3.30;;
9108;SDS011;4590;51.462;6.692;2024-02-21T16:06:20;4.35;;;2.30;;
9108;SDS011;4590;51.462;6.692;2024-02-21T16:08:46;6.50;;;2.67;;
9108;SDS011;4590;51.462;6.692;2024-02-21T16:11:15;3.60;;;2.28;;
9108;SDS011;4590;51.462;6.692;2024-02-21T16:13:41;4.50;;;2.42;;
9108;SDS011;4590;51.462;6.692;2024-02-21T16:16:11;7.72;;;2.83;;
9108;SDS011;4590;51.462;6.692;2024-02-21T16:18:36;4.93;;;2.57;;
9108;SDS011;4590;51.462;6.692;2024-02-21T16:21:02;4.90;;;2.60;;
9108;SDS011;4590;51.462;6.692;2024-02-21T16:23:27;8.57;;;3.00;;
9108;SDS011;4590;51.462;6.692;2024-02-21T16:25:52;6.03;;;2.50;;
9108;SDS011;4590;51.462;6.692;2024-02-21T16:28:18;7.37;;;2.47;;
9108;SDS011;4590;51.462;6.692;2024-02-21T16:30:43;4.20;;;2.13;;
9108;SDS011;4590;51.462;6.692;2024-02-21T16:33:08;3.37;;;2.17;;
9108;SDS011;4590;51.462;6.692;2024-02-21T16:35:35;4.43;;;1.80;;
9108;SDS011;4590;51.462;6.692;2024-02-21T16:38:01;4.55;;;2.03;;
9108;SDS011;4590;51.462;6.692;2024-02-21T16:40:28;3.53;;;1.83;;
9108;SDS011;4590;51.462;6.692;2024-02-21T16:42:53;8.13;;;2.30;;
9108;SDS011;4590;51.462;6.692;2024-02-21T16:45:19;5.13;;;2.40;;
9108;SDS011;4590;51.462;6.692;2024-02-21T16:47:46;4.13;;;2.17;;
9108;SDS011;4590;51.462;6.692;2024-02-21T16:50:11;4.50;;;2.10;;
9108;SDS011;4590;51.462;6.692;2024-02-21T16:52:39;5.25;;;2.30;;
9108;SDS011;4590;51.462;6.692;2024-02-21T16:55:05;6.00;;;2.30;;
9108;SDS011;4590;51.462;6.692;2024-02-21T16:57:32;5.10;;;2.33;;
9108;SDS011;4590;51.462;6.692;2024-02-21T16:59:59;5.70;;;1.80;;
9108;SDS011;4590;51.462;6.692;2024-02-21T17:02:36;4.65;;;1.75;;
9108;SDS011;4590;51.462;6.692;2024-02-21T17:05:02;6.80;;;2.60;;
9108;SDS011;4590;51.462;6.692;2024-02-21T17:07:27;6.00;;;1.90;;
9108;SDS011;4590;51.462;6.692;2024-02-21T17:10:14;4.97;;;2.22;;
9108;SDS011;4590;51.462;6.692;2024-02-21T17:12:39;5.40;;;2.53;;
9108;SDS011;4590;51.462;6.692;2024-02-21T17:15:05;5.53;;;2.50;;
9108;SDS011;4590;51.462;6.692;2024-02-21T17:17:31;6.60;;;2.28;;
9108;SDS011;4590;51.462;6.692;2024-02-21T17:19:59;5.75;;;1.88;;
9108;SDS011;4590;51.462;6.692;2024-02-21T17:22:25;4.13;;;1.87;;
9108;SDS011;4590;51.462;6.692;2024-02-21T17:24:50;4.55;;;2.80;;
9108;SDS011;4590;51.462;6.692;2024-02-21T17:27:16;3.47;;;2.00;;
9108;SDS011;4590;51.462;6.692;2024-02-21T17:29:41;4.23;;;2.07;;
9108;SDS011;4590;51.462;6.692;2024-02-21T17:32:07;4.73;;;2.13;;
9108;SDS011;4590;51.462;6.692;2024-02-21T17:34:33;4.75;;;2.70;;
9108;SDS011;4590;51.462;6.692;2024-02-21T17:36:58;8.40;;;3.30;;
9108;SDS011;4590;51.462;6.692;2024-02-21T17:39:25;7.28;;;3.20;;
9108;SDS011;4590;51.462;6.692;2024-02-21T17:41:50;7.50;;;3.03;;
9108;SDS011;4590;51.462;6.692;2024-02-21T17:44:18;7.72;;;2.92;;
9108;SDS011;4590;51.462;6.692;2024-02-21T17:46:43;6.57;;;2.83;;
9108;SDS011;4590;51.462;6.692;2024-02-21T17:49:09;7.37;;;3.27;;
9108;SDS011;4590;51.462;6.692;2024-02-21T17:51:36;9.82;;;2.75;;
9108;SDS011;4590;51.462;6.692;2024-02-21T17:54:03;6.32;;;3.03;;
9108;SDS011;4590;51.462;6.692;2024-02-21T17:56:29;6.67;;;2.30;;
9108;SDS011;4590;51.462;6.692;2024-02-21T17:58:54;6.10;;;2.67;;
9108;SDS011;4590;51.462;6.692;2024-02-21T18:01:19;5.47;;;2.63;;
9108;SDS011;4590;51.462;6.692;2024-02-21T18:03:44;8.80;;;3.30;;
9108;SDS011;4590;51.462;6.692;2024-02-21T18:06:10;10.43;;;3.37;;
9108;SDS011;4590;51.462;6.692;2024-02-21T18:08:35;7.67;;;3.40;;
9108;SDS011;4590;51.462;6.692;2024-02-21T18:11:00;8.97;;;3.60;;
9108;SDS011;4590;51.462;6.692;2024-02-21T18:13:26;6.80;;;3.13;;
9108;SDS011;4590;51.462;6.692;2024-02-21T18:15:55;6.03;;;2.83;;
9108;SDS011;4590;51.462;6.692;2024-02-21T18:18:24;6.20;;;2.33;;
9108;SDS011;4590;51.462;6.692;2024-02-21T18:20:49;6.53;;;2.63;;
9108;SDS011;4590;51.462;6.692;2024-02-21T18:23:15;9.23;;;3.03;;
9108;SDS011;4590;51.462;6.692;2024-02-21T18:25:40;8.80;;;4.30;;
9108;SDS011;4590;51.462;6.692;2024-02-21T18:30:32;10.50;;;3.88;;
9108;SDS011;4590;51.462;6.692;2024-02-21T18:32:59;7.43;;;2.63;;
9108;SDS011;4590;51.462;6.692;2024-02-21T18:35:26;6.50;;;3.03;;
9108;SDS011;4590;51.462;6.692;2024-02-21T18:37:51;8.55;;;3.33;;
9108;SDS011;4590;51.462;6.692;2024-02-21T18:40:16;6.67;;;2.47;;
9108;SDS011;4590;51.462;6.692;2024-02-21T18:42:42;6.63;;;2.80;;
9108;SDS011;4590;51.462;6.692;2024-02-21T18:45:08;4.80;;;2.30;;
9108;SDS011;4590;51.462;6.692;2024-02-21T18:47:35;6.38;;;2.90;;
9108;SDS011;4590;51.462;6.692;2024-02-21T18:50:00;4.83;;;2.60;;
9108;SDS011;4590;51.462;6.692;2024-02-21T18:52:26;6.20;;;2.75;;
9108;SDS011;4590;51.462;6.692;2024-02-21T18:54:51;6.30;;;3.13;;
9108;SDS011;4590;51.462;6.692;2024-02-21T18:57:17;10.00;;;3.57;;
9108;SDS011;4590;51.462;6.692;2024-02-21T18:59:43;8.32;;;3.33;;
9108;SDS011;4590;51.462;6.692;2024-02-21T19:02:08;6.75;;;3.05;;
9108;SDS011;4590;51.462;6.692;2024-02-21T19:04:34;6.30;;;2.97;;
9108;SDS011;4590;51.462;6.692;2024-02-21T19:06:59;7.20;;;3.10;;
9108;SDS011;4590;51.462;6.692;2024-02-21T19:09:25;8.55;;;3.10;;
9108;SDS011;4590;51.462;6.692;2024-02-21T19:11:50;9.17;;;3.63;;
9108;SDS011;4590;51.462;6.692;2024-02-21T19:14:16;8.27;;;3.43;;
9108;SDS011;4590;51.462;6.692;2024-02-21T19:16:41;8.90;;;4.17;;
9108;SDS011;4590;51.462;6.692;2024-02-21T19:19:07;9.50;;;4.00;;
9108;SDS011;4590;51.462;6.692;2024-02-21T19:21:32;9.07;;;4.70;;
9108;SDS011;4590;51.462;6.692;2024-02-21T19:23:57;8.60;;;4.27;;
9108;SDS011;4590;51.462;6.692;2024-02-21T19:26:24;8.40;;;4.07;;
9108;SDS011;4590;51.462;6.692;2024-02-21T19:28:49;9.50;;;4.20;;
9108;SDS011;4590;51.462;6.692;2024-02-21T19:31:15;8.63;;;4.10;;
9108;SDS011;4590;51.462;6.692;2024-02-21T19:33:40;11.63;;;4.43;;
9108;SDS011;4590;51.462;6.692;2024-02-21T19:36:06;11.70;;;5.25;;
9108;SDS011;4590;51.462;6.692;2024-02-21T19:38:34;7.65;;;3.92;;
9108;SDS011;4590;51.462;6.692;2024-02-21T19:40:59;13.67;;;4.17;;
9108;SDS011;4590;51.462;6.692;2024-02-21T19:43:26;9.27;;;4.30;;
9108;SDS011;4590;51.462;6.692;2024-02-21T19:48:17;8.10;;;4.70;;
9108;SDS011;4590;51.462;6.692;2024-02-21T19:50:44;10.48;;;4.25;;
9108;SDS011;4590;51.462;6.692;2024-02-21T19:53:10;9.93;;;4.57;;
9108;SDS011;4590;51.462;6.692;2024-02-21T19:55:37;9.27;;;4.03;;
9108;SDS011;4590;51.462;6.692;2024-02-21T19:58:03;9.00;;;3.93;;
9108;SDS011;4590;51.462;6.692;2024-02-21T20:00:29;8.10;;;3.90;;
9108;SDS011;4590;51.462;6.692;2024-02-21T20:02:55;7.50;;;3.73;;
9108;SDS011;4590;51.462;6.692;2024-02-21T20:05:20;7.23;;;2.70;;
9108;SDS011;4590;51.462;6.692;2024-02-21T20:10:12;6.10;;;3.20;;
9108;SDS011;4590;51.462;6.692;2024-02-21T20:12:39;7.22;;;3.08;;
9108;SDS011;4590;51.462;6.692;2024-02-21T20:15:05;6.50;;;3.07;;
9108;SDS011;4590;51.462;6.692;2024-02-21T20:17:32;4.85;;;2.88;;
9108;SDS011;4590;51.462;6.692;2024-02-21T20:19:58;6.65;;;2.80;;
9108;SDS011;4590;51.462;6.692;2024-02-21T20:22:24;4.50;;;3.10;;
9108;SDS011;4590;51.462;6.692;2024-02-21T20:24:50;7.00;;;2.88;;
9108;SDS011;4590;51.462;6.692;2024-02-21T20:27:15;6.60;;;2.87;;
9108;SDS011;4590;51.462;6.692;2024-02-21T20:29:41;8.60;;;2.77;;
9108;SDS011;4590;51.462;6.692;2024-02-21T20:32:06;7.80;;;3.10;;
9108;SDS011;4590;51.462;6.692;2024-02-21T20:34:31;5.53;;;2.70;;
9108;SDS011;4590;51.462;6.692;2024-02-21T20:39:23;6.70;;;2.53;;
9108;SDS011;4590;51.462;6.692;2024-02-21T20:41:49;5.55;;;2.67;;
9108;SDS011;4590;51.462;6.692;2024-02-21T20:44:15;6.75;;;3.08;;
9108;SDS011;4590;51.462;6.692;2024-02-21T20:46:41;6.05;;;3.13;;
9108;SDS011;4590;51.462;6.692;2024-02-21T20:49:06;7.73;;;3.83;;
9108;SDS011;4590;51.462;6.692;2024-02-21T20:51:32;8.50;;;3.60;;
9108;SDS011;4590;51.462;6.692;2024-02-21T20:53:57;8.33;;;3.80;;
9108;SDS011;4590;51.462;6.692;2024-02-21T20:56:23;6.63;;;3.40;;
9108;SDS011;4590;51.462;6.692;2024-02-21T20:58:48;7.20;;;3.37;;
9108;SDS011;4590;51.462;6.692;2024-02-21T21:01:14;7.65;;;3.65;;
9108;SDS011;4590;51.462;6.692;2024-02-21T21:03:40;8.50;;;3.75;;